Terminal Aerodrome Forecast
Issued by NWS

Home | Current Version | Previous Version | Text Only | Print | Product List | Glossary Off
Versions: 1 2 3 4 5 6 7 8 9 10 11 12

000
FTUS43 KFGF 060500
TAFBJI
TAF
KBJI 060522Z 0606/0706 13009KT P6SM SCT250
     FM061100 12008KT P6SM BKN020
     FM061900 12011KT P6SM BKN035=

USA.gov is the U.S. government's official web portal to all federal, state and local government web resources and services.